Kezdőlap
METAR-TAF:

METAR-TAF

Repülőterek :

Karacsi, Pakisztán

földrajzi szélesség: 24-54N, földrajzi hosszúság: 067-08E, magasság: 21 m

Jelenlegi meteorológiai megfigyelések

A jelentés 25 perccel ezelõtt készült, 13:55 UTC
Nyugat-délnyugati szél 8 kt
Hőmérséklet 30°C
Páratartalom 62%
Légköri nyomás 1008 hPa
Látótávolság: 6000 m

METAR: OPKC 231355Z 24008KT 6000 NSC 30/22 Q1008 NOSIG

Idő: 19:20 (14:20 UTC)

Előrejelzés

A jelentés 4 órával és 20 perccel ezelõtt készült, 10:00 UTC
Az előrejelzés 23-én 12 óra UTC és 24-én 18 óra UTC között érvényes
Nyugat-délnyugati szél 8 kt széllökések: 18 kt
Látótávolság: 6000 m
Kevés felhő 3000 lábon
Szórványos felhőzet 10000 lábon
24-én 00 óra UTC és 24-én 04 óra UTC között ideiglenes
Nyugati szél 8 kt
Látótávolság: 5000 m
Kevés felhő 3000 lábon
Szórványos felhőzet 10000 lábon
Száraz légköri homály

TAF: OPKC 231000Z 2312/2418 24008G18KT 6000 FEW030 SCT100 TEMPO 2400/2404 26008KT 5000 HZ FEW030 SCT100

Meteorológiai megfigyelések és előrejelzések több, mint 4000 repülőtéren (METAR és TAF jelentéseket).

A térképen piros és sárga pontok jelzik az elérhető meteorológiai állomásokat.

Mozgassa az egeret a pont fölött, hogy megjelenjen az állomás neve.

Azután kattintson az időjárási megfigyelések és előrejelzések megtekintéséhez.

A térkép megváltoztatása: kattintson a fekete keresztel jelölt zöld gombra ráközelítéshez, a vonallal jelölt zöld gombra távolításhoz, vagy a zöld nyilakra a szomszédos térképek eléréséhez.


METAR-TAF: